Time;durP1;ratioP1;P1;durP2;ratioP2;P2;SDS_P1;SDS_P2;PMS_P1;PMS_P2;Temp;Humidity;BMP_temperature;BMP_pressure;BME280_temperature;BME280_humidity;BME280_pressure;Samples;Min_cycle;Max_cycle;Signal;HPM_P1;HPM_P2
2022/12/18 00:02:20;;;;;;;32.20;11.43;;;;;;;-145.69;100.00;52812.75;5074925;28;20289;-78
2022/12/18 00:04:46;;;;;;;32.57;11.43;;;;;;;-145.69;100.00;52804.84;5079429;28;20207;-78
2022/12/18 00:07:13;;;;;;;31.17;10.80;;;;;;;-145.69;100.00;52777.09;5078772;28;20229;-78
2022/12/18 00:09:39;;;;;;;36.20;12.20;;;;;;;-145.69;100.00;52808.78;5090715;28;20217;-77
2022/12/18 00:12:08;;;;;;;31.20;11.70;;;;;;;-145.69;100.00;52836.53;5093924;28;20201;-78
2022/12/18 00:14:34;;;;;;;32.47;11.23;;;;;;;-145.69;100.00;52844.44;5093870;28;20199;-77
2022/12/18 00:17:01;;;;;;;43.47;14.70;;;;;;;-145.69;100.00;52840.47;5093069;28;20456;-77
2022/12/18 00:19:28;;;;;;;34.87;12.83;;;;;;;-145.69;100.00;52812.75;5093620;28;20210;-77
2022/12/18 00:21:54;;;;;;;34.90;11.77;;;;;;;-145.69;100.00;52828.59;5094639;28;20297;-77
2022/12/18 00:24:21;;;;;;;29.30;10.80;;;;;;;-145.69;100.00;52850.38;5083102;28;20195;-77
2022/12/18 00:26:47;;;;;;;33.30;11.30;;;;;;;-145.69;100.00;52828.59;5074535;28;20209;-77
2022/12/18 00:29:15;;;;;;;34.90;11.97;;;;;;;-145.69;100.00;52812.75;5076909;28;20213;-77
2022/12/18 00:31:43;;;;;;;29.03;11.23;;;;;;;-145.69;100.00;52794.94;5093458;28;20290;-78
2022/12/18 00:34:11;;;;;;;34.70;11.10;;;;;;;-145.69;100.00;52812.75;5089088;28;20227;-77
2022/12/18 00:36:37;;;;;;;38.23;12.37;;;;;;;-145.69;100.00;52802.84;5088728;28;20253;-77
2022/12/18 00:39:05;;;;;;;36.50;12.97;;;;;;;-145.69;100.00;52783.06;5086344;28;20574;-77
2022/12/18 00:44:19;;;;;;;45.90;14.50;;;;;;;-145.69;100.00;52818.69;5080031;28;20247;-77
2022/12/18 00:46:46;;;;;;;43.77;14.93;;;;;;;-145.69;100.00;52816.72;5093046;28;20227;-76
2022/12/18 00:49:13;;;;;;;42.13;13.63;;;;;;;-145.69;100.00;52818.69;5087592;28;20201;-77
2022/12/18 00:51:40;;;;;;;47.60;14.13;;;;;;;-145.69;100.00;52840.47;5073780;28;20203;-78
2022/12/18 00:54:06;;;;;;;47.30;14.93;;;;;;;-145.69;100.00;52816.72;5074222;28;20222;-77
2022/12/18 00:56:33;;;;;;;44.33;14.03;;;;;;;-145.69;100.00;52794.94;5073819;28;20194;-78
2022/12/18 00:58:59;;;;;;;46.60;14.13;;;;;;;-145.69;100.00;52818.69;5077766;28;20653;-77
2022/12/18 01:01:27;;;;;;;43.17;13.97;;;;;;;-145.69;100.00;52781.06;5085752;28;20202;-78
2022/12/18 01:03:54;;;;;;;47.20;14.10;;;;;;;-145.69;100.00;52779.09;5089925;28;20198;-78
2022/12/18 01:06:20;;;;;;;44.20;13.33;;;;;;;-145.69;100.00;52804.84;5073770;28;20202;-78
2022/12/18 01:08:47;;;;;;;44.80;14.60;;;;;;;-145.69;100.00;52852.38;5087705;28;20203;-78
2022/12/18 01:11:16;;;;;;;40.87;13.37;;;;;;;-145.69;100.00;52796.91;5093349;28;20217;-78
2022/12/18 01:13:43;;;;;;;39.33;13.33;;;;;;;-145.69;100.00;52824.63;5090830;28;20226;-77
2022/12/18 01:16:13;;;;;;;43.37;13.47;;;;;;;-145.69;100.00;52812.75;5082187;28;20195;-78
2022/12/18 01:18:41;;;;;;;41.40;14.10;;;;;;;-145.69;100.00;52796.91;5092640;28;20200;-77
2022/12/18 01:21:09;;;;;;;42.90;13.10;;;;;;;-145.69;100.00;52840.47;5093736;28;20565;-78
2022/12/18 01:23:35;;;;;;;34.87;12.60;;;;;;;-145.69;100.00;52852.38;5092456;28;20212;-78
2022/12/18 01:26:06;;;;;;;47.87;14.13;;;;;;;-145.69;100.00;52804.84;5073628;28;20207;-78
2022/12/18 01:28:32;;;;;;;37.77;12.23;;;;;;;-145.69;100.00;52820.69;5073184;28;20205;-77
2022/12/18 01:31:09;;;;;;;46.00;13.87;;;;;;;-145.69;100.00;52792.94;5076676;28;20207;-77
2022/12/18 01:33:36;;;;;;;43.37;12.87;;;;;;;-145.69;100.00;52816.72;5073294;28;20562;-78
2022/12/18 01:36:04;;;;;;;50.00;14.40;;;;;;;-145.69;100.00;52794.94;5072960;28;20230;-77
2022/12/18 01:38:30;;;;;;;40.03;11.87;;;;;;;-145.69;100.00;52804.84;5084164;28;20199;-76
2022/12/18 01:40:58;;;;;;;45.90;13.93;;;;;;;-145.69;100.00;52812.75;5093239;28;20653;-78
2022/12/18 01:43:43;;;;;;;39.50;12.93;;;;;;;-145.69;100.00;52796.91;5092192;28;20198;-77
2022/12/18 01:46:10;;;;;;;41.13;12.57;;;;;;;-145.69;100.00;52830.59;5091091;28;20671;-77
2022/12/18 01:48:37;;;;;;;38.93;12.57;;;;;;;-145.69;100.00;52810.78;5091344;28;20205;-78
2022/12/18 01:51:06;;;;;;;45.90;13.47;;;;;;;-145.69;100.00;52796.91;5092223;28;20198;-77
2022/12/18 01:53:33;;;;;;;37.97;12.70;;;;;;;-145.69;100.00;52765.22;5092816;28;20233;-77
2022/12/18 01:56:00;;;;;;;44.23;13.23;;;;;;;-145.69;100.00;52854.34;5085503;28;20191;-78
2022/12/18 01:58:36;;;;;;;45.57;13.37;;;;;;;-145.69;100.00;52765.22;5082003;28;20190;-78
2022/12/18 02:01:03;;;;;;;39.03;13.57;;;;;;;-145.69;100.00;52802.84;5091386;28;20652;-78
2022/12/18 02:03:29;;;;;;;44.47;12.50;;;;;;;-145.69;100.00;52828.59;5088814;28;20717;-78
2022/12/18 02:06:07;;;;;;;48.10;13.67;;;;;;;-145.69;100.00;52773.16;5073146;28;20224;-78
2022/12/18 02:08:42;;;;;;;50.67;13.83;;;;;;;-145.69;100.00;52787.00;5081981;28;20247;-78
2022/12/18 02:11:16;;;;;;;42.43;12.60;;;;;;;-145.69;100.00;52824.63;5093148;28;20206;-78
2022/12/18 02:13:51;;;;;;;47.90;12.40;;;;;;;-145.69;100.00;52789.00;5091473;28;20321;-78
2022/12/18 02:16:25;;;;;;;50.00;13.40;;;;;;;-145.69;100.00;52785.03;5090912;28;20201;-78
2022/12/18 02:18:57;;;;;;;47.83;13.87;;;;;;;-145.69;100.00;52785.03;5084560;28;20286;-78
2022/12/18 02:21:30;;;;;;;43.83;14.07;;;;;;;-145.69;100.00;52832.56;5086292;28;20656;-78
2022/12/18 02:24:14;;;;;;;37.40;12.80;;;;;;;-145.69;100.00;52792.94;5076912;28;20199;-78
2022/12/18 02:26:48;;;;;;;53.43;14.50;;;;;;;-145.69;100.00;52808.78;5072517;28;20202;-77
2022/12/18 02:29:18;;;;;;;38.90;13.90;;;;;;;-145.69;100.00;52804.84;5072541;28;20199;-78
2022/12/18 02:31:48;;;;;;;50.47;13.87;;;;;;;-145.69;100.00;52804.84;5085155;28;20266;-78
2022/12/18 02:34:17;;;;;;;48.80;13.57;;;;;;;-145.69;100.00;52822.66;5091721;28;20226;-78
2022/12/18 02:36:45;;;;;;;49.10;14.80;;;;;;;-145.69;100.00;52757.31;5093650;28;20236;-78
2022/12/18 02:39:14;;;;;;;44.00;14.73;;;;;;;-145.69;100.00;52828.59;5089920;28;20290;-77
2022/12/18 02:41:42;;;;;;;46.83;15.00;;;;;;;-145.69;100.00;52804.84;5072559;28;20195;-78
2022/12/18 02:44:12;;;;;;;55.97;15.77;;;;;;;-145.69;100.00;52785.03;5081320;28;20204;-78
2022/12/18 02:46:42;;;;;;;46.60;14.37;;;;;;;-145.69;100.00;52834.53;5092132;28;20683;-77
2022/12/18 02:49:21;;;;;;;47.97;13.80;;;;;;;-145.69;100.00;52804.84;5078876;28;20198;-78
2022/12/18 02:51:53;;;;;;;39.30;11.47;;;;;;;-145.69;100.00;52852.38;5076148;28;20209;-78
2022/12/18 02:54:30;;;;;;;58.97;21.13;;;;;;;-145.69;100.00;52777.09;5092275;28;20460;-77
2022/12/18 02:57:05;;;;;;;42.70;14.33;;;;;;;-145.69;100.00;52769.19;5083265;28;20207;-77
2022/12/18 02:59:39;;;;;;;42.27;14.00;;;;;;;-145.69;100.00;52824.63;5086427;28;20201;-77
2022/12/18 03:02:16;;;;;;;37.23;13.10;;;;;;;-145.69;100.00;52802.84;5094441;28;20204;-77
2022/12/18 03:04:48;;;;;;;39.33;12.43;;;;;;;-145.69;100.00;52789.00;5083624;28;20203;-77
2022/12/18 03:07:21;;;;;;;39.03;13.53;;;;;;;-145.69;100.00;52798.91;5079719;28;20209;-77
2022/12/18 03:09:51;;;;;;;43.50;13.03;;;;;;;-145.69;100.00;52789.00;5076014;28;20556;-77
2022/12/18 03:12:24;;;;;;;33.27;11.67;;;;;;;-145.69;100.00;52787.00;5080079;28;20200;-77
2022/12/18 03:14:56;;;;;;;40.03;13.37;;;;;;;-145.69;100.00;52804.84;5090774;28;20230;-78
2022/12/18 03:17:27;;;;;;;38.53;12.87;;;;;;;-145.69;100.00;52775.13;5094486;28;20206;-77
2022/12/18 03:19:57;;;;;;;37.53;13.10;;;;;;;-145.69;100.00;52812.75;5095894;28;20194;-77
2022/12/18 03:22:28;;;;;;;47.97;13.60;;;;;;;-145.69;100.00;52777.09;5094406;28;20205;-77
2022/12/18 03:24:56;;;;;;;47.67;14.07;;;;;;;-145.69;100.00;52765.22;5095788;28;20267;-78
2022/12/18 03:27:27;;;;;;;39.50;13.87;;;;;;;-145.69;100.00;52840.47;5091264;28;20277;-78
2022/12/18 03:30:07;;;;;;;34.10;12.40;;;;;;;-145.69;100.00;52777.09;5075772;28;20206;-78
2022/12/18 03:32:39;;;;;;;52.07;14.10;;;;;;;-145.69;100.00;52800.88;5093621;28;20255;-78
2022/12/18 03:35:08;;;;;;;50.70;14.77;;;;;;;-145.69;100.00;52810.78;5093921;28;20237;-78
2022/12/18 03:37:35;;;;;;;48.10;13.97;;;;;;;-145.69;100.00;52824.63;5092945;28;20288;-77
2022/12/18 03:40:01;;;;;;;45.87;13.03;;;;;;;-145.69;100.00;52800.88;5094503;28;20747;-77
2022/12/18 03:42:33;;;;;;;42.10;12.70;;;;;;;-145.69;100.00;52826.63;5094452;28;20198;-77
2022/12/18 03:45:07;;;;;;;39.93;12.50;;;;;;;-145.69;100.00;52840.47;5094786;28;20550;-77
2022/12/18 03:47:40;;;;;;;34.67;11.80;;;;;;;-145.69;100.00;52798.91;5091468;28;20198;-77
2022/12/18 03:50:15;;;;;;;40.33;12.20;;;;;;;-145.69;100.00;52773.16;5075063;28;20230;-78
2022/12/18 03:52:48;;;;;;;37.53;11.50;;;;;;;-145.69;100.00;52820.69;5084833;28;20203;-78
2022/12/18 03:55:14;;;;;;;37.03;12.63;;;;;;;-145.69;100.00;52838.50;5078375;28;20226;-77
2022/12/18 03:57:44;;;;;;;30.40;11.33;;;;;;;-145.69;100.00;52792.94;5094198;28;20209;-78
2022/12/18 04:00:14;;;;;;;37.43;11.67;;;;;;;-145.69;100.00;52836.53;5083989;28;20199;-77
2022/12/18 04:02:46;;;;;;;35.47;11.00;;;;;;;-145.69;100.00;52800.88;5094727;28;20206;-77
2022/12/18 04:05:14;;;;;;;37.83;13.03;;;;;;;-145.69;100.00;52806.81;5085850;28;20207;-78
2022/12/18 04:07:42;;;;;;;39.33;12.27;;;;;;;-145.69;100.00;52806.81;5077459;28;20194;-77
2022/12/18 04:10:11;;;;;;;39.87;14.00;;;;;;;-145.69;100.00;52808.78;5094195;28;20207;-77
2022/12/18 04:12:38;;;;;;;39.00;12.17;;;;;;;-145.69;100.00;52826.63;5074851;28;20199;-79
2022/12/18 04:15:07;;;;;;;42.03;11.80;;;;;;;-145.69;100.00;52824.63;5092528;28;20688;-78
2022/12/18 04:17:34;;;;;;;38.90;12.53;;;;;;;-145.69;100.00;52824.63;5089313;28;20195;-78
2022/12/18 04:20:01;;;;;;;38.40;12.40;;;;;;;-145.69;100.00;52787.00;5094998;28;20537;-78
2022/12/18 04:22:27;;;;;;;37.07;11.90;;;;;;;-145.69;100.00;52802.84;5076127;28;20305;-79
2022/12/18 04:24:54;;;;;;;44.10;12.70;;;;;;;-145.69;100.00;52804.84;5074419;28;20444;-78
2022/12/18 04:27:20;;;;;;;48.70;13.37;;;;;;;-145.69;100.00;52838.50;5074270;28;20202;-77
2022/12/18 04:29:47;;;;;;;45.73;12.93;;;;;;;-145.69;100.00;52771.16;5074211;28;20210;-78
2022/12/18 04:32:15;;;;;;;44.70;13.37;;;;;;;-145.69;100.00;52808.78;5074593;28;20195;-78
2022/12/18 04:34:41;;;;;;;49.90;14.93;;;;;;;-145.69;100.00;52840.47;5088695;28;20604;-78
2022/12/18 04:37:08;;;;;;;52.30;13.80;;;;;;;-145.69;100.00;52789.00;5094388;28;20237;-78
2022/12/18 04:39:35;;;;;;;54.63;15.37;;;;;;;-145.69;100.00;52822.66;5086068;28;20553;-78
2022/12/18 04:42:02;;;;;;;59.17;16.07;;;;;;;-145.69;100.00;52802.84;5094471;28;20201;-77
2022/12/18 04:44:28;;;;;;;51.93;15.17;;;;;;;-145.69;100.00;52796.91;5080899;28;20210;-78
2022/12/18 04:46:55;;;;;;;50.97;14.53;;;;;;;-145.69;100.00;52806.81;5088182;28;20668;-78
2022/12/18 04:49:23;;;;;;;55.40;15.63;;;;;;;-145.69;100.00;52798.91;5092567;28;20198;-78
2022/12/18 04:51:50;;;;;;;66.23;17.83;;;;;;;-145.69;100.00;52761.25;5094289;28;20202;-78
2022/12/18 04:54:16;;;;;;;74.50;18.47;;;;;;;-145.69;100.00;52777.09;5086463;28;20735;-78
2022/12/18 04:56:43;;;;;;;63.87;17.40;;;;;;;-145.69;100.00;52753.34;5086902;28;20206;-78
2022/12/18 04:59:09;;;;;;;77.07;19.53;;;;;;;-145.69;100.00;52790.97;5083378;28;20210;-78
2022/12/18 05:01:38;;;;;;;66.93;18.53;;;;;;;-145.69;100.00;52814.75;5085700;28;20204;-78
2022/12/18 05:04:05;;;;;;;63.73;18.20;;;;;;;-145.69;100.00;52785.03;5082232;28;20353;-78
2022/12/18 05:06:33;;;;;;;57.77;17.57;;;;;;;-145.69;100.00;52796.91;5081357;28;20612;-78
2022/12/18 05:09:00;;;;;;;49.20;16.50;;;;;;;-145.69;100.00;52777.09;5073505;28;20198;-78
2022/12/18 05:11:26;;;;;;;57.30;16.50;;;;;;;-145.69;100.00;52798.91;5084341;28;20651;-78
2022/12/18 05:13:53;;;;;;;54.40;16.10;;;;;;;-145.69;100.00;52771.16;5087642;28;20225;-78
2022/12/18 05:16:19;;;;;;;53.67;14.87;;;;;;;-145.69;100.00;52767.19;5081792;28;20673;-78
2022/12/18 05:18:46;;;;;;;54.27;16.40;;;;;;;-145.69;100.00;52808.78;5073319;28;20207;-78
2022/12/18 05:21:12;;;;;;;47.57;14.53;;;;;;;-145.69;100.00;52820.69;5081746;28;20247;-78
2022/12/18 05:23:40;;;;;;;45.40;15.27;;;;;;;-145.69;100.00;52812.75;5088784;28;20202;-78
2022/12/18 05:26:08;;;;;;;53.93;15.60;;;;;;;-145.69;100.00;52794.94;5073468;28;20199;-79
2022/12/18 05:28:36;;;;;;;57.37;17.60;;;;;;;-145.69;100.00;52816.72;5075130;28;20198;-78
2022/12/18 05:31:04;;;;;;;51.87;14.63;;;;;;;-145.69;100.00;52781.06;5084291;28;20241;-79
2022/12/18 05:33:32;;;;;;;58.30;16.33;;;;;;;-145.69;100.00;52812.75;5089991;28;20573;-79
2022/12/18 05:36:00;;;;;;;44.53;13.97;;;;;;;-145.69;100.00;52753.34;5077566;28;20287;-78
2022/12/18 05:38:28;;;;;;;49.57;15.23;;;;;;;-145.69;100.00;52781.06;5073042;28;20199;-78
2022/12/18 05:40:56;;;;;;;48.63;16.13;;;;;;;-145.69;100.00;52741.47;5073672;28;20542;-78
2022/12/18 05:43:26;;;;;;;45.80;14.50;;;;;;;-145.69;100.00;52785.03;5093388;28;20649;-78
2022/12/18 05:45:53;;;;;;;44.17;13.80;;;;;;;-145.69;100.00;52773.16;5090218;28;20209;-77
2022/12/18 05:48:20;;;;;;;46.07;13.60;;;;;;;-145.69;100.00;52796.91;5097781;28;20202;-79
2022/12/18 05:50:48;;;;;;;48.87;15.70;;;;;;;-145.69;100.00;52810.78;5110047;28;20205;-78
2022/12/18 05:53:17;;;;;;;53.17;15.57;;;;;;;-145.69;100.00;52783.06;5114857;28;20205;-79
2022/12/18 05:55:44;;;;;;;58.03;15.47;;;;;;;-145.69;100.00;52808.78;5074078;28;20891;-78
2022/12/18 05:58:14;;;;;;;55.20;15.87;;;;;;;-145.69;100.00;52796.91;5073034;28;20202;-78
2022/12/18 06:00:42;;;;;;;52.43;14.30;;;;;;;-145.69;100.00;52775.13;5089470;28;20305;-78
2022/12/18 06:03:09;;;;;;;42.47;13.63;;;;;;;-145.69;100.00;52781.06;5092640;28;20194;-78
2022/12/18 06:05:37;;;;;;;47.47;14.60;;;;;;;-145.69;100.00;52789.00;5090256;28;20206;-78
2022/12/18 06:08:04;;;;;;;43.27;14.83;;;;;;;-145.69;100.00;52789.00;5087716;28;20202;-78
2022/12/18 06:10:31;;;;;;;50.87;14.27;;;;;;;-145.69;100.00;52812.75;5093163;28;20295;-77
2022/12/18 06:12:58;;;;;;;48.97;14.47;;;;;;;-145.69;100.00;52822.66;5081053;28;20206;-77
2022/12/18 06:15:25;;;;;;;44.07;14.07;;;;;;;-145.69;100.00;52792.94;5090565;28;20930;-77
2022/12/18 06:17:52;;;;;;;48.93;14.67;;;;;;;-145.69;100.00;52759.28;5092788;28;20202;-78
2022/12/18 06:20:19;;;;;;;51.87;16.20;;;;;;;-145.69;100.00;52802.84;5091729;28;20202;-77
2022/12/18 06:22:45;;;;;;;54.70;15.57;;;;;;;-145.69;100.00;52820.69;5095748;28;20297;-77
2022/12/18 06:25:12;;;;;;;46.67;13.57;;;;;;;-145.69;100.00;52796.91;5097549;28;20202;-77
2022/12/18 06:27:39;;;;;;;54.67;13.60;;;;;;;-145.69;100.00;52808.78;5079361;28;20218;-78
2022/12/18 06:30:07;;;;;;;50.70;14.43;;;;;;;-145.69;100.00;52790.97;5089578;28;20202;-77
2022/12/18 06:32:35;;;;;;;46.57;14.90;;;;;;;-145.69;100.00;52781.06;5097193;28;20652;-77
2022/12/18 06:35:01;;;;;;;49.23;14.60;;;;;;;-145.69;100.00;52840.47;5095679;28;20226;-77
2022/12/18 06:37:28;;;;;;;42.43;14.27;;;;;;;-145.69;100.00;52789.00;5096085;28;20202;-78
2022/12/18 06:39:56;;;;;;;45.67;14.10;;;;;;;-145.69;100.00;52840.47;5095679;28;20197;-78
2022/12/18 06:42:22;;;;;;;48.53;14.40;;;;;;;-145.69;100.00;52790.97;5096898;28;20267;-78
2022/12/18 06:44:49;;;;;;;46.10;13.87;;;;;;;-145.69;100.00;52820.69;5094202;28;20194;-77
2022/12/18 06:47:15;;;;;;;44.37;14.03;;;;;;;-145.69;100.00;52808.78;5096272;28;20208;-77
2022/12/18 06:49:44;;;;;;;49.57;14.40;;;;;;;-145.69;100.00;52761.25;5095463;28;20206;-78
2022/12/18 06:52:20;;;;;;;49.93;16.17;;;;;;;-145.69;100.00;52804.84;5096742;28;20225;-76
2022/12/18 06:54:47;;;;;;;42.30;15.03;;;;;;;-145.69;100.00;52804.84;5094756;28;20222;-77
2022/12/18 06:57:13;;;;;;;52.07;15.97;;;;;;;-145.69;100.00;52785.03;5096532;28;20194;-78
2022/12/18 06:59:40;;;;;;;50.00;15.80;;;;;;;-145.69;100.00;52789.00;5090460;28;20209;-78
2022/12/18 07:02:06;;;;;;;55.92;19.40;;;;;;;-145.69;100.00;52792.94;5089811;28;20442;-78
2022/12/18 07:04:33;;;;;;;50.67;15.90;;;;;;;-145.69;100.00;52808.78;5076109;28;20199;-77
2022/12/18 07:07:01;;;;;;;36.33;12.80;;;;;;;-145.69;100.00;52824.63;5089479;28;20190;-77
2022/12/18 07:09:27;;;;;;;38.10;11.83;;;;;;;-145.69;100.00;52816.72;5084982;28;20197;-77
2022/12/18 07:11:54;;;;;;;40.50;11.53;;;;;;;-145.69;100.00;52792.94;5088597;28;20248;-74
2022/12/18 07:14:21;;;;;;;57.28;17.83;;;;;;;-145.69;100.00;52826.63;5085907;28;20457;-77
2022/12/18 07:16:47;;;;;;;50.00;15.43;;;;;;;-145.69;100.00;52779.09;5081866;28;20206;-77
2022/12/18 07:19:14;;;;;;;46.10;13.50;;;;;;;-145.69;100.00;52789.00;5075751;28;20205;-77
2022/12/18 07:21:41;;;;;;;47.83;12.90;;;;;;;-145.69;100.00;52777.09;5075347;28;20206;-77
2022/12/18 07:24:09;;;;;;;40.67;12.37;;;;;;;-145.69;100.00;52773.16;5075705;28;20198;-77
2022/12/18 07:26:35;;;;;;;47.47;13.63;;;;;;;-145.69;100.00;52796.91;5080442;28;20641;-77
2022/12/18 07:29:02;;;;;;;50.07;12.90;;;;;;;-145.69;100.00;52790.97;5092971;28;20293;-77
2022/12/18 07:31:28;;;;;;;46.63;12.87;;;;;;;-145.69;100.00;52796.91;5095128;28;20198;-76
2022/12/18 07:33:55;;;;;;;47.10;14.67;;;;;;;-145.69;100.00;52789.00;5090330;28;20197;-77
2022/12/18 07:36:24;;;;;;;55.13;15.03;;;;;;;-145.69;100.00;52794.94;5075271;28;20269;-76
2022/12/18 07:38:52;;;;;;;57.10;15.90;;;;;;;-145.69;100.00;52785.03;5079111;28;20609;-76
2022/12/18 07:41:20;;;;;;;54.67;15.03;;;;;;;-145.69;100.00;52796.91;5085165;28;20239;-77
2022/12/18 07:43:47;;;;;;;60.77;15.97;;;;;;;-145.69;100.00;52812.75;5092619;28;20560;-77
2022/12/18 07:46:15;;;;;;;47.70;13.33;;;;;;;-145.69;100.00;52773.16;5090614;28;20194;-78
2022/12/18 07:48:42;;;;;;;57.47;15.03;;;;;;;-145.69;100.00;52822.66;5093395;28;20213;-78
2022/12/18 07:51:09;;;;;;;52.67;15.27;;;;;;;-145.69;100.00;52794.94;5095184;28;20201;-80
2022/12/18 07:53:36;;;;;;;43.90;14.73;;;;;;;-145.69;100.00;52802.84;5095251;28;20202;-77
2022/12/18 07:56:05;;;;;;;49.40;15.27;;;;;;;-145.69;100.00;52794.94;5092756;28;20237;-77
2022/12/18 07:58:34;;;;;;;51.50;14.97;;;;;;;-145.69;100.00;52798.91;5093599;28;20210;-81
2022/12/18 08:01:05;;;;;;;43.80;13.63;;;;;;;-145.69;100.00;52812.75;5093161;28;20204;-77
2022/12/18 08:03:31;;;;;;;48.63;13.93;;;;;;;-145.69;100.00;52769.19;5087421;28;20696;-78
2022/12/18 08:06:00;;;;;;;47.50;14.63;;;;;;;-145.69;100.00;52771.16;5093003;28;20201;-77
2022/12/18 08:08:27;;;;;;;43.17;13.90;;;;;;;-145.69;100.00;52787.00;5094882;28;20649;-77
2022/12/18 08:10:54;;;;;;;41.73;13.60;;;;;;;-145.69;100.00;52789.00;5091273;28;20203;-78
2022/12/18 08:13:20;;;;;;;40.20;13.47;;;;;;;-145.69;100.00;52796.91;5076994;28;20662;-77
2022/12/18 08:15:56;;;;;;;44.23;13.70;;;;;;;-145.69;100.00;52796.91;5078526;28;20225;-78
2022/12/18 08:18:23;;;;;;;45.00;13.80;;;;;;;-145.69;100.00;52790.97;5094175;28;20208;-77
2022/12/18 08:20:50;;;;;;;43.20;13.73;;;;;;;-145.69;100.00;52802.84;5079193;28;20552;-77
2022/12/18 08:23:16;;;;;;;43.37;13.83;;;;;;;-145.69;100.00;52789.00;5074759;28;20198;-77
2022/12/18 08:25:43;;;;;;;48.33;14.43;;;;;;;-145.69;100.00;52781.06;5094455;28;20206;-77
2022/12/18 08:28:10;;;;;;;42.93;14.23;;;;;;;-145.69;100.00;52771.16;5094965;28;20302;-77
2022/12/18 08:30:37;;;;;;;43.20;13.27;;;;;;;-145.69;100.00;52769.19;5092348;28;20194;-77
2022/12/18 08:33:05;;;;;;;42.70;12.70;;;;;;;-145.69;100.00;52761.25;5094509;28;20197;-78
2022/12/18 08:35:35;;;;;;;37.53;12.97;;;;;;;-145.69;100.00;52773.16;5093314;28;20230;-78
2022/12/18 08:38:02;;;;;;;44.13;13.23;;;;;;;-145.69;100.00;52775.13;5093681;28;20660;-79
2022/12/18 08:40:29;;;;;;;48.03;14.60;;;;;;;-145.69;100.00;52781.06;5092811;28;20251;-78
2022/12/18 08:45:42;;;;;;;41.93;13.27;;;;;;;-145.69;100.00;52767.19;5065765;28;20197;-77
2022/12/18 08:48:10;;;;;;;48.97;14.33;;;;;;;-145.69;100.00;52779.09;5094107;28;20202;-76
2022/12/18 08:50:36;;;;;;;40.33;13.77;;;;;;;-145.69;100.00;52792.94;5074619;28;20195;-76
2022/12/18 08:53:03;;;;;;;44.37;13.70;;;;;;;-145.69;100.00;52808.78;5073862;28;20672;-77
2022/12/18 08:55:30;;;;;;;45.53;14.13;;;;;;;-145.69;100.00;52757.31;5086465;28;20229;-76
2022/12/18 08:57:56;;;;;;;39.77;13.07;;;;;;;-145.69;100.00;52755.31;5092411;28;20198;-76
2022/12/18 09:00:23;;;;;;;43.23;14.30;;;;;;;-145.69;100.00;52796.91;5086898;28;20205;-76
2022/12/18 09:02:51;;;;;;;40.77;13.60;;;;;;;-145.69;100.00;52777.09;5093954;28;20201;-76
2022/12/18 09:05:19;;;;;;;38.17;13.73;;;;;;;-145.69;100.00;52812.75;5090283;28;20542;-76
2022/12/18 09:07:46;;;;;;;46.60;14.00;;;;;;;-145.69;100.00;52787.00;5093947;28;20197;-76
2022/12/18 09:10:12;;;;;;;38.03;12.83;;;;;;;-145.69;100.00;52779.09;5093918;28;20206;-76
2022/12/18 09:12:39;;;;;;;44.97;15.10;;;;;;;-145.69;100.00;52789.00;5093930;28;20202;-78
2022/12/18 09:15:07;;;;;;;40.43;13.33;;;;;;;-145.69;100.00;52812.75;5108053;28;20228;-77
2022/12/18 09:17:33;;;;;;;41.73;13.83;;;;;;;-145.69;100.00;52761.25;5092601;28;20194;-78
2022/12/18 09:20:01;;;;;;;46.43;14.93;;;;;;;-145.69;100.00;52794.94;5092365;28;20198;-80
2022/12/18 09:22:29;;;;;;;47.30;13.40;;;;;;;-145.69;100.00;52769.19;5093594;28;20197;-77
2022/12/18 09:24:55;;;;;;;40.60;13.63;;;;;;;-145.69;100.00;52800.88;5077115;28;20199;-78
2022/12/18 09:27:22;;;;;;;36.03;13.30;;;;;;;-145.69;100.00;52769.19;5073234;28;20210;-79
2022/12/18 09:29:50;;;;;;;45.83;13.97;;;;;;;-145.69;100.00;52729.56;5087490;28;20229;-78
2022/12/18 09:32:17;;;;;;;47.23;15.13;;;;;;;-145.69;100.00;52777.09;5089465;28;20233;-79
2022/12/18 09:34:43;;;;;;;48.43;13.47;;;;;;;-145.69;100.00;52785.03;5093773;28;20560;-79
2022/12/18 09:37:10;;;;;;;47.67;13.03;;;;;;;-145.69;100.00;52773.16;5091464;28;20273;-78
2022/12/18 09:39:39;;;;;;;41.90;14.00;;;;;;;-145.69;100.00;52741.47;5091547;28;20194;-78
2022/12/18 09:42:06;;;;;;;42.27;13.47;;;;;;;-145.69;100.00;52765.22;5092083;28;20233;-77
2022/12/18 09:44:39;;;;;;;46.00;13.93;;;;;;;-145.69;100.00;52761.25;5091402;28;20195;-77
2022/12/18 09:47:14;;;;;;;51.17;15.47;;;;;;;-145.69;100.00;52745.41;5079324;28;20221;-77
2022/12/18 09:49:43;;;;;;;36.10;12.67;;;;;;;-145.69;100.00;52765.22;5075564;28;20280;-77
2022/12/18 09:52:15;;;;;;;46.10;14.37;;;;;;;-145.69;100.00;52753.34;5073018;28;20195;-77
2022/12/18 09:54:46;;;;;;;43.10;12.53;;;;;;;-145.69;100.00;52794.94;5072705;28;20234;-77
2022/12/18 09:57:17;;;;;;;49.27;14.77;;;;;;;-145.69;100.00;52737.50;5072425;28;20226;-77
2022/12/18 09:59:49;;;;;;;38.13;13.43;;;;;;;-145.69;100.00;52767.19;5081791;28;20190;-77
2022/12/18 10:02:18;;;;;;;42.40;13.90;;;;;;;-145.69;100.00;52794.94;5079026;28;20851;-76
2022/12/18 10:04:54;;;;;;;40.10;13.23;;;;;;;-145.69;100.00;52773.16;5088916;28;20284;-77
2022/12/18 10:07:27;;;;;;;44.27;13.67;;;;;;;-145.69;100.00;52812.75;5091544;28;20194;-76
2022/12/18 10:10:01;;;;;;;39.60;13.37;;;;;;;-145.69;100.00;52771.16;5091564;28;20689;-77
2022/12/18 10:12:35;;;;;;;38.73;14.17;;;;;;;-145.69;100.00;52751.34;5091221;28;20296;-77
2022/12/18 10:15:11;;;;;;;41.67;13.37;;;;;;;-145.69;100.00;52783.06;5092995;28;20201;-76
2022/12/18 10:17:45;;;;;;;50.87;14.10;;;;;;;-145.69;100.00;52761.25;5076356;28;20198;-76
2022/12/18 10:20:16;;;;;;;46.97;14.13;;;;;;;-145.69;100.00;52755.31;5073191;28;20229;-76
2022/12/18 10:22:53;;;;;;;39.00;13.23;;;;;;;-145.69;100.00;52739.47;5072855;28;20202;-76
2022/12/18 10:25:29;;;;;;;44.17;14.23;;;;;;;-145.69;100.00;52773.16;5073058;28;20195;-77
2022/12/18 10:28:01;;;;;;;45.90;13.43;;;;;;;-145.69;100.00;52761.25;5087514;28;20198;-79
2022/12/18 10:30:27;;;;;;;38.03;12.50;;;;;;;-145.69;100.00;52773.16;5074447;28;20380;-76
2022/12/18 10:32:56;;;;;;;44.77;14.30;;;;;;;-145.69;100.00;52790.97;5092808;28;20190;-77
2022/12/18 10:35:26;;;;;;;40.73;13.67;;;;;;;-145.69;100.00;52745.41;5090659;28;20257;-78
2022/12/18 10:38:06;;;;;;;42.47;14.23;;;;;;;-145.69;100.00;52745.41;5092659;28;20292;-77
2022/12/18 10:40:49;;;;;;;42.20;13.93;;;;;;;-145.69;100.00;52771.16;5091465;28;20198;-77
2022/12/18 10:43:17;;;;;;;43.47;14.33;;;;;;;-145.69;100.00;52725.63;5072646;28;20199;-77
2022/12/18 10:45:59;;;;;;;45.92;16.02;;;;;;;-145.69;100.00;52783.06;5075829;28;20866;-78
2022/12/18 10:48:28;;;;;;;38.97;13.70;;;;;;;-145.69;100.00;52790.97;5092509;28;20209;-77
2022/12/18 10:50:55;;;;;;;41.33;13.37;;;;;;;-145.69;100.00;52755.31;5091010;28;20209;-77
2022/12/18 10:53:25;;;;;;;39.80;13.97;;;;;;;-145.69;100.00;52747.41;5092537;28;20680;-76
2022/12/18 10:55:55;;;;;;;37.53;12.47;;;;;;;-145.69;100.00;52761.25;5083851;28;20227;-76
2022/12/18 10:58:25;;;;;;;43.57;14.00;;;;;;;-145.69;100.00;52769.19;5072434;28;20553;-76
2022/12/18 11:01:08;;;;;;;43.10;13.20;;;;;;;-145.69;100.00;52761.25;5082474;28;20699;-76
2022/12/18 11:03:36;;;;;;;37.93;13.17;;;;;;;-145.69;100.00;52777.09;5092241;28;20549;-77
2022/12/18 11:06:06;;;;;;;49.97;14.87;;;;;;;-145.69;100.00;52747.41;5091344;28;20681;-76
2022/12/18 11:08:33;;;;;;;45.33;14.13;;;;;;;-145.69;100.00;52777.09;5094365;28;20198;-76